ADDS TAF Data INFO
IDs: Format: Raw Decoded Include METARs

Data at: 1920 UTC 16 Jan 2018

KCRW 161918Z 29008KT 1SM -SN OVC011 M06/M09 A3039 RMK AO2 P0000 T10561089 RVRNO

KCRW 161727Z 1618/1718 00000KT 2SM -SN SCT007 OVC013
  FM162100 30005KT 3SM -SN OVC010
  FM170200 30003KT P6SM BKN025